Mount Rainier, MD (20712)

9:57 PM EDT on August 22, 2014 (GMT -0400)
Riverdale Park | Change Station
CLOSE
Current Station
Personal Weather Station
Location: Riverdale, MD
Elevation: 52 ft
Nearby Weather Stations

Elev 52 ft 38.96 °N, 76.94 °W | Updated 1 second ago

Scattered Clouds
Scattered Clouds
73.8 °F
Feels Like 72 °F
N
1.0
Wind Variable Wind from SSE
Gusts 3.0 mph

Today
High -- | Low -- °F
--% Chance of Precip.
Yesterday
High -- | Low -- °F
Precip. -- in
6:27 AM 7:53 PM
Waning Crescent, 6% visible
Pressure 30.00 in
Visibility 10.0 miles
Clouds Scattered Clouds 2800 ft
Scattered Clouds 6000 ft
Heat Index 72 °F
Dew Point 71 °F
Humidity 90%
Rainfall 0.09 in
Snow Depth Not available.
UV 0 out of 12
Pollen 8.60 out of 12
Air Quality Not available.
Flu Activity Not available.
METAR KCGS 230140Z AUTO 00000KT 10SM SCT028 SCT060 23/21 A3000 RMK AO1

More Conditions Fewer Conditions

Pressure 30.00 in
Visibility 10.0 miles
Clouds Scattered Clouds 2800 ft
Scattered Clouds 6000 ft
Heat Index 72 °F
Dew Point 71 °F
Humidity 90%
Rainfall 0.09 in
Snow Depth Not available.
UV 0 out of 12
Pollen 8.60 out of 12
Air Quality Not available.
Flu Activity Not available.
METAR KCGS 230140Z AUTO 00000KT 10SM SCT028 SCT060 23/21 A3000 RMK AO1

More Conditions Fewer Conditions

10-Day Weather Forecast

Almanac

Astronomy

Aug. 22, 2014 Rise Set
Actual Time 6:27 AM EDT 7:53 PM EDT
Civil Twilight 5:59 AM EDT 8:20 PM EDT
Nautical Twilight 5:26 AM EDT 8:54 PM EDT
Astronomical Twilight 4:50 AM EDT 9:29 PM EDT
Moon 3:49 AM EDT (8/22) 5:59 PM EDT (8/22)
Length of Visible Light 14h 21m
Length of Day
13h 25m
Tomorrow will be 2m 20s shorter.
Waning Crescent, 6% of the Moon is Illuminated
Today
Waning Crescent
Aug 25
New
Sep 2
First Quarter
Sep 8
Full
Sep 15
Last Quarter

Today's Extremes

State Highs State Lows

Community

WunderPhotos

Upload Photos

1,746,337 photos uploaded!

WunderBlogs® & News

Nearby

Snow Depth

Station Depth Elevation
No new snow has been reported.

Earthquake Activity

City Distance Mag. Time & Date
No recent earthquake activity has been reported nearby.
Minimum magnitude displayed is 2.5.

Coastal Water Temperatures

Place Temperature
Washington, DC 79.0 °F
Baltimore, MD 82.0 °F
Solomons Island, MD 80.1 °F

Nearby Weather Stations